Friday, April 20, 2018, 10:27 AM GMT
Back to Local

CWQO, Ile Bicquette, Que.

Location: , , Canada Lat: 48.416
Local Time: 10:27 AM GMT (10:27 GMT) Lon: -68.893
Time Zone: GMT Elev: 22 ft

Show me the last for .
Show Coded

Time T Td Feel RH Dir Speed Gust Alt SLP Vis Weather Sky Remarks
2018-04-20 10:00 31 32 19 102 30° 15 22 - - 0 Peak wind: 21 mph (19 kts) from 40° at 57 min
2018-04-20 09:00 32 31 26 99 20° 6 - - - 0 None
2018-04-20 08:00 32 31 24 99 30° 9 - - - 0 None
2018-04-20 07:00 31 32 24 101 40° 8 - - - 0 None
2018-04-20 06:00 33 32 28 94 60° 6 - - - 0 None
2018-04-20 05:00 34 31 28 89 20° 7 - - - 0 None
2018-04-20 04:00 33 32 27 94 10° 7 - - - 0 None
2018-04-20 03:00 33 32 27 94 10° 7 - - - 0 None
2018-04-20 02:00 33 33 26 98 20° 9 - - - 0 None
2018-04-20 01:00 33 33 22 98 50° 12 17 - - 0 None
2018-04-20 00:00 33 32 23 95 40° 14 - - - 0 None
2018-04-19 23:00 33 32 24 96 50° 13 - - - 0 None
2018-04-19 22:00 33 32 23 95 50° 15 - - - 0 Peak wind: 19 mph (17 kts) from 40° at 56 min
2018-04-19 21:00 33 32 24 94 40° 14 - - - 0 None
2018-04-19 20:00 34 32 25 92 40° 12 - - - 0 None
2018-04-19 19:00 36 33 30 89 40° 8 - - - 0 None
2018-04-19 18:00 37 34 32 87 50° 7 - - - 0 None
2018-04-19 17:00 37 33 34 85 10° 3 - - - 0 None
2018-04-19 16:00 37 33 34 87 260° 3 - - - 0 None
2018-04-19 15:00 37 34 31 87 230° 8 - - - 0 None
2018-04-19 13:00 36 35 28 95 230° 12 - - - 0 None
2018-04-19 12:00 35 34 26 96 230° 13 - - - 0 None
2018-04-19 11:00 34 33 25 96 220° 13 - - - 0 None

Support USWX by starting your Amazon purchase here.